Time;durP1;ratioP1;P1;durP2;ratioP2;P2;SDS_P1;SDS_P2;PMS_P1;PMS_P2;Temp;Humidity;BMP_temperature;BMP_pressure;BME280_temperature;BME280_humidity;BME280_pressure;Samples;Min_cycle;Max_cycle;Signal;HPM_P1;HPM_P2
2021/03/27 00:00:39;;;;;;;;;;;6.10;99.90;;;;;;13183355;22;19918;-85
2021/03/27 00:05:45;;;;;;;;;;;6.10;99.90;;;;;;13179847;22;19971;-83
2021/03/27 00:10:57;;;;;;;;;;;6.10;99.90;;;;;;13154723;22;19946;-83
2021/03/27 00:16:10;;;;;;;;;;;6.10;99.90;;;;;;13156204;22;19918;-83
2021/03/27 00:21:18;;;;;;;;;;;6.10;99.90;;;;;;13156238;22;20357;-83
2021/03/27 00:26:22;;;;;;;;;;;6.20;99.90;;;;;;13183713;22;19929;-83
2021/03/27 00:31:31;;;;;;;;;;;6.10;99.90;;;;;;13155771;22;19919;-83
2021/03/27 00:36:38;;;;;;;;;;;6.00;99.90;;;;;;13182747;22;19929;-83
2021/03/27 00:41:48;;;;;;;;;;;6.00;99.90;;;;;;13182617;22;19958;-85
2021/03/27 00:46:50;;;;;;;;;;;6.00;99.90;;;;;;13183275;22;19940;-85
2021/03/27 00:52:00;;;;;;;;;;;5.90;99.90;;;;;;13154750;22;19918;-84
2021/03/27 00:57:05;;;;;;;;;;;6.00;99.90;;;;;;13155235;22;19919;-83
2021/03/27 01:02:11;;;;;;;;;;;5.90;99.90;;;;;;13183396;22;20091;-83
2021/03/27 01:07:13;;;;;;;;;;;6.00;99.90;;;;;;13154624;22;19926;-83
2021/03/27 01:12:17;;;;;;;;;;;5.90;99.90;;;;;;13155107;22;19953;-83
2021/03/27 01:17:21;;;;;;;;;;;5.90;99.90;;;;;;13154122;22;20243;-83
2021/03/27 01:22:23;;;;;;;;;;;7.50;99.90;;;;;;13182121;22;19933;-83
2021/03/27 01:27:24;;;;;;;;;;;8.40;99.90;;;;;;13154995;22;19922;-83
2021/03/27 01:32:44;;;;;;;;;;;7.80;99.90;;;;;;13154001;22;20000;-83
2021/03/27 01:37:59;;;;;;;;;;;5.80;99.90;;;;;;13154413;22;19941;-84
2021/03/27 01:43:00;;;;;;;;;;;5.90;99.90;;;;;;13153447;22;19919;-84
2021/03/27 01:48:13;;;;;;;;;;;5.80;99.90;;;;;;13180890;22;20425;-84
2021/03/27 01:53:24;;;;;;;;;;;5.90;99.90;;;;;;13181210;22;19924;-83
2021/03/27 01:58:30;;;;;;;;;;;5.90;99.90;;;;;;13182244;22;19918;-83
2021/03/27 02:03:38;;;;;;;;;;;6.40;99.90;;;;;;13153158;22;20318;-84
2021/03/27 02:08:52;;;;;;;;;;;6.00;99.90;;;;;;13181702;22;19922;-84
2021/03/27 02:14:14;;;;;;;;;;;5.90;99.90;;;;;;13152775;22;19922;-84
2021/03/27 02:19:21;;;;;;;;;;;6.00;99.90;;;;;;13152774;22;19918;-85
2021/03/27 02:24:41;;;;;;;;;;;6.00;99.90;;;;;;13181073;22;19930;-84
2021/03/27 02:29:54;;;;;;;;;;;6.10;99.90;;;;;;13180158;22;20010;-84
2021/03/27 02:34:55;;;;;;;;;;;6.10;99.90;;;;;;13153293;22;19989;-85
2021/03/27 02:39:59;;;;;;;;;;;6.00;99.90;;;;;;13179885;22;19971;-85
2021/03/27 02:45:04;;;;;;;;;;;6.00;99.90;;;;;;13152560;22;19942;-84
2021/03/27 02:50:05;;;;;;;;;;;5.90;99.90;;;;;;13152393;22;20294;-84
2021/03/27 02:55:18;;;;;;;;;;;5.70;99.90;;;;;;13179790;22;20331;-85
2021/03/27 03:00:23;;;;;;;;;;;5.70;99.90;;;;;;13179801;22;20000;-85
2021/03/27 03:05:24;;;;;;;;;;;5.70;99.90;;;;;;13179919;22;20313;-85
2021/03/27 03:10:30;;;;;;;;;;;5.60;99.90;;;;;;13180454;22;19929;-85
2021/03/27 03:15:47;;;;;;;;;;;5.50;99.90;;;;;;13152091;22;20454;-84
2021/03/27 03:20:56;;;;;;;;;;;5.60;99.90;;;;;;13152955;22;20009;-85
2021/03/27 03:26:16;;;;;;;;;;;5.50;99.90;;;;;;13152579;22;19997;-84
2021/03/27 03:31:30;;;;;;;;;;;5.60;99.90;;;;;;13180354;22;19989;-84
2021/03/27 03:36:41;;;;;;;;;;;5.70;99.90;;;;;;13180929;22;19944;-85
2021/03/27 03:41:45;;;;;;;;;;;5.80;99.90;;;;;;13180332;22;19985;-84
2021/03/27 03:46:49;;;;;;;;;;;5.80;99.90;;;;;;13181489;22;20246;-84
2021/03/27 03:52:09;;;;;;;;;;;5.80;99.90;;;;;;13155890;22;19922;-84
2021/03/27 03:57:29;;;;;;;;;;;5.70;99.90;;;;;;13155627;22;20406;-84
2021/03/27 04:02:47;;;;;;;;;;;5.70;99.90;;;;;;13183982;22;19985;-84
2021/03/27 04:07:55;;;;;;;;;;;5.70;99.90;;;;;;13155574;22;19918;-84
2021/03/27 04:13:15;;;;;;;;;;;5.70;99.90;;;;;;13155981;22;19963;-84
2021/03/27 04:18:40;;;;;;;;;;;5.70;99.90;;;;;;13155034;22;19944;-84
2021/03/27 04:23:44;;;;;;;;;;;5.70;99.90;;;;;;13135420;22;19922;-85
2021/03/27 04:28:51;;;;;;;;;;;5.70;99.90;;;;;;13154975;22;20307;-84
2021/03/27 04:34:11;;;;;;;;;;;5.60;99.90;;;;;;13155875;22;19966;-84
2021/03/27 04:39:19;;;;;;;;;;;5.60;99.90;;;;;;13183761;22;19922;-84
2021/03/27 04:44:32;;;;;;;;;;;5.60;99.90;;;;;;13182201;22;19918;-85
2021/03/27 04:49:52;;;;;;;;;;;5.60;99.90;;;;;;13155910;22;19918;-85
2021/03/27 04:54:55;;;;;;;;;;;5.60;99.90;;;;;;13156536;22;19918;-85
2021/03/27 05:00:09;;;;;;;;;;;5.60;99.90;;;;;;13154863;22;19924;-84
2021/03/27 05:05:25;;;;;;;;;;;5.70;99.90;;;;;;13182289;22;19946;-85
2021/03/27 05:10:27;;;;;;;;;;;5.60;99.90;;;;;;13181857;22;20000;-84
2021/03/27 05:15:46;;;;;;;;;;;6.90;99.90;;;;;;13154493;22;19929;-84
2021/03/27 05:20:51;;;;;;;;;;;5.70;99.90;;;;;;13154581;22;19941;-85
2021/03/27 05:25:55;;;;;;;;;;;5.60;99.90;;;;;;13181983;22;20273;-84
2021/03/27 05:31:15;;;;;;;;;;;5.50;99.90;;;;;;13181443;22;20397;-84
2021/03/27 05:36:35;;;;;;;;;;;5.50;99.90;;;;;;13154245;22;19987;-84
2021/03/27 05:41:37;;;;;;;;;;;5.40;99.90;;;;;;13182356;22;19985;-84
2021/03/27 05:46:56;;;;;;;;;;;5.60;99.90;;;;;;13154940;22;19989;-84
2021/03/27 05:52:17;;;;;;;;;;;5.50;99.90;;;;;;13181733;22;19994;-84
2021/03/27 05:57:54;;;;;;;;;;;5.50;99.90;;;;;;13181614;22;19926;-85
2021/03/27 06:03:04;;;;;;;;;;;5.50;99.90;;;;;;12985159;22;20313;-83
2021/03/27 06:08:05;;;;;;;;;;;5.40;99.90;;;;;;13088343;22;19922;-84
2021/03/27 06:13:19;;;;;;;;;;;5.40;99.90;;;;;;13089485;22;20056;-84
2021/03/27 06:18:39;;;;;;;;;;;4.80;99.90;;;;;;13088539;22;20001;-85
2021/03/27 06:23:55;;;;;;;;;;;4.10;99.90;;;;;;13088162;22;19926;-84
2021/03/27 06:28:56;;;;;;;;;;;4.00;99.90;;;;;;13088811;22;20251;-84
2021/03/27 06:34:17;;;;;;;;;;;7.80;99.90;;;;;;13088224;22;20387;-84
2021/03/27 06:39:25;;;;;;;;;;;4.20;99.90;;;;;;13088644;22;19989;-84
2021/03/27 06:44:26;;;;;;;;;;;4.30;99.90;;;;;;13087897;22;20001;-84
2021/03/27 06:49:44;;;;;;;;;;;4.40;99.90;;;;;;13087782;22;20244;-84
2021/03/27 06:55:18;;;;;;;;;;;4.40;99.90;;;;;;13091226;22;19999;-85
2021/03/27 07:00:38;;;;;;;;;;;4.40;99.90;;;;;;13087692;22;20251;-84
2021/03/27 07:06:04;;;;;;;;;;;4.40;99.90;;;;;;13087757;22;20241;-84
2021/03/27 07:11:34;;;;;;;;;;;4.60;99.90;;;;;;13088441;22;19982;-84
2021/03/27 07:16:57;;;;;;;;;;;4.70;99.90;;;;;;13087270;22;19922;-83
2021/03/27 07:22:07;;;;;;;;;;;5.50;99.90;;;;;;13117922;22;19944;-84
2021/03/27 07:27:27;;;;;;;;;;;6.70;99.90;;;;;;13119612;22;19919;-85
2021/03/27 07:32:47;;;;;;;;;;;7.30;99.90;;;;;;13118981;22;19918;-84
2021/03/27 07:37:52;;;;;;;;;;;7.50;99.90;;;;;;13091064;22;20290;-85
2021/03/27 07:43:05;;;;;;;;;;;7.80;99.90;;;;;;13118674;22;20333;-84
2021/03/27 07:48:09;;;;;;;;;;;8.40;99.90;;;;;;13091769;22;19919;-85
2021/03/27 07:53:17;;;;;;;;;;;8.30;99.90;;;;;;13118376;22;19972;-85
2021/03/27 07:58:30;;;;;;;;;;;7.90;99.90;;;;;;13118152;22;20313;-85
2021/03/27 08:03:47;;;;;;;;;;;8.80;99.90;;;;;;13118219;22;19985;-86
2021/03/27 08:08:54;;;;;;;;;;;7.80;99.90;;;;;;13117557;22;19926;-85
2021/03/27 08:14:18;;;;;;;;;;;7.00;99.90;;;;;;13090495;22;19986;-84
2021/03/27 08:19:32;;;;;;;;;;;6.70;99.90;;;;;;13090398;22;19994;-85
2021/03/27 08:24:48;;;;;;;;;;;6.40;99.90;;;;;;13091488;22;19994;-85
2021/03/27 08:30:10;;;;;;;;;;;5.20;99.90;;;;;;13117224;22;19919;-84
2021/03/27 08:35:30;;;;;;;;;;;5.30;99.90;;;;;;13118120;22;20001;-84
2021/03/27 08:40:38;;;;;;;;;;;5.10;99.90;;;;;;13118408;22;19923;-85
2021/03/27 08:45:58;;;;;;;;;;;5.00;99.90;;;;;;13090414;22;19925;-84
2021/03/27 08:51:09;;;;;;;;;;;4.70;99.90;;;;;;13090898;22;19953;-85
2021/03/27 08:56:41;;;;;;;;;;;4.60;99.90;;;;;;13116912;22;19919;-85
2021/03/27 09:01:49;;;;;;;;;;;4.70;99.90;;;;;;13087372;22;19943;-85
2021/03/27 09:06:50;;;;;;;;;;;4.90;99.90;;;;;;13111889;22;20009;-85
2021/03/27 09:12:03;;;;;;;;;;;10.30;99.90;;;;;;13084192;22;19945;-85
2021/03/27 09:17:27;;;;;;;;;;;8.90;99.90;;;;;;13110522;22;20395;-85
2021/03/27 09:22:34;;;;;;;;;;;7.10;99.90;;;;;;13083860;22;19968;-85
2021/03/27 09:27:54;;;;;;;;;;;6.70;99.90;;;;;;13111079;22;19989;-85
2021/03/27 09:33:02;;;;;;;;;;;6.60;99.90;;;;;;13082402;22;20251;-85
2021/03/27 09:38:04;;;;;;;;;;;8.10;99.90;;;;;;13113599;22;19923;-85
2021/03/27 09:43:23;;;;;;;;;;;9.60;99.90;;;;;;13091289;22;19981;-85
2021/03/27 09:48:29;;;;;;;;;;;9.90;99.90;;;;;;13120095;22;19938;-85
2021/03/27 09:53:59;;;;;;;;;;;10.90;99.90;;;;;;13117577;22;20021;-85
2021/03/27 09:59:14;;;;;;;;;;;9.90;99.90;;;;;;13092796;22;19953;-85
2021/03/27 10:04:27;;;;;;;;;;;11.30;99.90;;;;;;13086309;22;20380;-85
2021/03/27 10:09:35;;;;;;;;;;;12.20;99.90;;;;;;13114824;22;19989;-85
2021/03/27 10:14:38;;;;;;;;;;;11.40;99.80;;;;;;13107816;22;20418;-85
2021/03/27 10:19:46;;;;;;;;;;;11.90;99.80;;;;;;13108282;22;19998;-85
2021/03/27 10:25:03;;;;;;;;;;;12.10;93.70;;;;;;13107932;22;19989;-85
2021/03/27 10:30:28;;;;;;;;;;;12.80;92.80;;;;;;13107608;22;20002;-84
2021/03/27 10:35:45;;;;;;;;;;;11.50;96.60;;;;;;13079534;22;19925;-84
2021/03/27 10:40:48;;;;;;;;;;;12.30;93.80;;;;;;13108392;22;19930;-85
2021/03/27 10:45:55;;;;;;;;;;;11.80;91.10;;;;;;13080577;22;19993;-85
2021/03/27 10:51:06;;;;;;;;;;;11.80;96.10;;;;;;13080617;22;19989;-84
2021/03/27 10:56:22;;;;;;;;;;;11.30;83.60;;;;;;13107782;22;19965;-85
2021/03/27 11:01:23;;;;;;;;;;;11.70;87.60;;;;;;13108284;22;20382;-86
2021/03/27 11:06:37;;;;;;;;;;;12.40;72.10;;;;;;13079223;22;19929;-84
2021/03/27 11:11:58;;;;;;;;;;;11.00;72.60;;;;;;13080628;22;19922;-85
2021/03/27 11:17:18;;;;;;;;;;;11.10;76.60;;;;;;13043245;22;19929;-84
2021/03/27 11:22:31;;;;;;;;;;;11.60;74.80;;;;;;13107314;22;19957;-84
2021/03/27 11:27:48;;;;;;;;;;;11.80;71.30;;;;;;13107754;22;19985;-84
2021/03/27 11:32:52;;;;;;;;;;;12.10;73.20;;;;;;13107325;22;19950;-84
2021/03/27 11:38:02;;;;;;;;;;;10.70;72.80;;;;;;13106101;22;19969;-84
2021/03/27 11:43:03;;;;;;;;;;;10.10;71.30;;;;;;13106755;22;19949;-83
2021/03/27 11:48:19;;;;;;;;;;;10.70;81.20;;;;;;13080001;22;19993;-83
2021/03/27 11:53:34;;;;;;;;;;;9.80;76.10;;;;;;13081968;22;19919;-85
2021/03/27 12:04:42;;;;;;;;;;;9.80;84.80;;;;;;13128528;22;20282;-87
2021/03/27 12:09:43;;;;;;;;;;;10.70;83.30;;;;;;13092574;22;19922;-86
2021/03/27 12:14:49;;;;;;;;;;;10.30;81.30;;;;;;13146702;22;20005;-86
2021/03/27 12:19:55;;;;;;;;;;;9.30;86.70;;;;;;13173993;22;19946;-87
2021/03/27 12:25:09;;;;;;;;;;;8.30;99.30;;;;;;13146223;22;19922;-86
2021/03/27 12:30:29;;;;;;;;;;;10.00;99.90;;;;;;13146793;22;19954;-87
2021/03/27 12:35:34;;;;;;;;;;;11.10;97.30;;;;;;13174257;22;20266;-87
2021/03/27 12:40:49;;;;;;;;;;;11.50;95.60;;;;;;13174382;22;19923;-86
2021/03/27 12:45:59;;;;;;;;;;;11.00;86.20;;;;;;13145931;22;20361;-86
2021/03/27 12:51:06;;;;;;;;;;;10.60;86.70;;;;;;13173832;22;19968;-86
2021/03/27 12:56:08;;;;;;;;;;;10.10;91.50;;;;;;13146129;22;20323;-87
2021/03/27 13:01:29;;;;;;;;;;;8.70;99.90;;;;;;13151705;22;19924;-90
2021/03/27 13:06:49;;;;;;;;;;;8.60;99.90;;;;;;13155168;22;19989;-88
2021/03/27 13:11:56;;;;;;;;;;;9.10;99.90;;;;;;13184700;22;19957;-88
2021/03/27 13:17:02;;;;;;;;;;;9.20;99.80;;;;;;13183027;22;19958;-89
2021/03/27 13:22:23;;;;;;;;;;;9.20;99.20;;;;;;13156754;22;19997;-88
2021/03/27 13:27:47;;;;;;;;;;;10.10;94.90;;;;;;13157214;22;19919;-88
2021/03/27 13:32:51;;;;;;;;;;;10.00;96.80;;;;;;13183986;22;19925;-87
2021/03/27 13:37:56;;;;;;;;;;;9.70;96.30;;;;;;13156302;22;19918;-87
2021/03/27 13:43:07;;;;;;;;;;;9.60;93.00;;;;;;13156690;22;19925;-87
2021/03/27 13:48:15;;;;;;;;;;;10.40;92.20;;;;;;13153849;22;19989;-87
2021/03/27 13:53:19;;;;;;;;;;;11.60;90.90;;;;;;13177653;22;19918;-87
2021/03/27 13:58:24;;;;;;;;;;;10.60;88.50;;;;;;13183783;22;19918;-88
2021/03/27 14:03:25;;;;;;;;;;;10.70;81.80;;;;;;13179976;22;20303;-87
2021/03/27 14:08:32;;;;;;;;;;;10.80;84.10;;;;;;13148799;22;20013;-88
2021/03/27 14:13:38;;;;;;;;;;;11.30;84.50;;;;;;13148385;22;19922;-87
2021/03/27 14:18:40;;;;;;;;;;;10.50;88.60;;;;;;13173164;22;20029;-88
2021/03/27 14:24:05;;;;;;;;;;;10.70;90.80;;;;;;13172791;22;20361;-88
2021/03/27 14:29:11;;;;;;;;;;;11.50;85.60;;;;;;13088761;22;20323;-88
2021/03/27 14:34:12;;;;;;;;;;;11.30;82.10;;;;;;13172890;22;19925;-87
2021/03/27 14:39:13;;;;;;;;;;;11.30;82.30;;;;;;13144725;22;20266;-87
2021/03/27 14:44:35;;;;;;;;;;;10.40;80.60;;;;;;13173177;22;19930;-88
2021/03/27 14:49:45;;;;;;;;;;;10.20;82.80;;;;;;13143843;22;19946;-87
2021/03/27 14:54:50;;;;;;;;;;;10.10;79.90;;;;;;13145385;22;19929;-88
2021/03/27 14:59:55;;;;;;;;;;;9.90;79.40;;;;;;13145257;22;19989;-87
2021/03/27 15:05:02;;;;;;;;;;;10.80;84.30;;;;;;13171720;22;20313;-87
2021/03/27 15:10:27;;;;;;;;;;;10.80;75.60;;;;;;13171574;22;20311;-88
2021/03/27 15:15:29;;;;;;;;;;;11.30;77.50;;;;;;13144480;22;19922;-88
2021/03/27 15:20:38;;;;;;;;;;;11.00;75.60;;;;;;13172343;22;19926;-88
2021/03/27 15:31:16;;;;;;;;;;;11.00;74.60;;;;;;13171932;22;19957;-88
2021/03/27 15:36:24;;;;;;;;;;;10.90;76.00;;;;;;13143834;22;19929;-88
2021/03/27 15:41:29;;;;;;;;;;;10.50;72.00;;;;;;13146362;22;19926;-87
2021/03/27 15:46:33;;;;;;;;;;;10.20;76.60;;;;;;13148986;22;19926;-88
2021/03/27 15:51:39;;;;;;;;;;;10.20;75.10;;;;;;13175594;22;20657;-88
2021/03/27 15:56:44;;;;;;;;;;;10.30;78.00;;;;;;13175939;22;20005;-88
2021/03/27 16:01:57;;;;;;;;;;;10.10;79.30;;;;;;13155721;22;20323;-87
2021/03/27 16:07:01;;;;;;;;;;;9.90;76.70;;;;;;13152011;22;19922;-88
2021/03/27 16:12:06;;;;;;;;;;;9.70;74.40;;;;;;13175643;22;20009;-87
2021/03/27 16:17:25;;;;;;;;;;;9.60;71.90;;;;;;13174634;22;19957;-88
2021/03/27 16:22:26;;;;;;;;;;;9.50;73.50;;;;;;13147212;22;20339;-88
2021/03/27 16:27:28;;;;;;;;;;;9.40;76.90;;;;;;13146144;22;19942;-88
2021/03/27 16:32:41;;;;;;;;;;;9.30;78.50;;;;;;13148102;22;19932;-88
2021/03/27 16:37:58;;;;;;;;;;;9.70;79.40;;;;;;13146169;22;20672;-89
2021/03/27 16:42:59;;;;;;;;;;;9.10;76.80;;;;;;13174717;22;20251;-88
2021/03/27 16:48:09;;;;;;;;;;;9.00;80.30;;;;;;13175159;22;19924;-87
2021/03/27 16:53:17;;;;;;;;;;;8.80;82.60;;;;;;13146274;22;19923;-88
2021/03/27 16:58:20;;;;;;;;;;;8.70;86.90;;;;;;13145830;22;20270;-88
2021/03/27 17:03:27;;;;;;;;;;;9.60;88.40;;;;;;13147131;22;19928;-88
2021/03/27 17:08:38;;;;;;;;;;;8.70;89.60;;;;;;13146153;22;19922;-88
2021/03/27 17:13:46;;;;;;;;;;;8.60;86.70;;;;;;13146925;22;19928;-87
2021/03/27 17:19:06;;;;;;;;;;;9.00;86.30;;;;;;13174153;22;19924;-87
2021/03/27 17:24:23;;;;;;;;;;;8.30;81.90;;;;;;13174407;22;19922;-88
2021/03/27 17:29:44;;;;;;;;;;;8.30;83.70;;;;;;13173124;22;20372;-88
2021/03/27 17:35:05;;;;;;;;;;;8.10;87.50;;;;;;13173208;22;19926;-88
2021/03/27 17:40:14;;;;;;;;;;;8.00;86.20;;;;;;13146445;22;19942;-87
2021/03/27 17:45:15;;;;;;;;;;;7.80;87.90;;;;;;13146730;22;20028;-87
2021/03/27 17:50:28;;;;;;;;;;;7.80;90.50;;;;;;13173522;22;19947;-88
2021/03/27 17:55:31;;;;;;;;;;;7.70;92.10;;;;;;13173690;22;19965;-88
2021/03/27 18:00:36;;;;;;;;;;;10.00;95.10;;;;;;13173621;22;19929;-88
2021/03/27 18:05:39;;;;;;;;;;;7.20;93.00;;;;;;13144379;22;19918;-87
2021/03/27 18:10:43;;;;;;;;;;;8.40;95.00;;;;;;13146010;22;19954;-87
2021/03/27 18:15:52;;;;;;;;;;;6.90;95.60;;;;;;13144648;22;19972;-88
2021/03/27 18:21:03;;;;;;;;;;;9.00;96.30;;;;;;13146031;22;19989;-88
2021/03/27 18:26:11;;;;;;;;;;;6.60;98.70;;;;;;13145354;22;19945;-88
2021/03/27 18:31:16;;;;;;;;;;;6.30;99.60;;;;;;13145412;22;19953;-88
2021/03/27 18:36:24;;;;;;;;;;;7.30;99.90;;;;;;13171946;22;19922;-88
2021/03/27 18:41:26;;;;;;;;;;;5.90;99.90;;;;;;13145043;22;20013;-88
2021/03/27 18:46:28;;;;;;;;;;;5.70;99.90;;;;;;13118317;22;19922;-88
2021/03/27 18:51:38;;;;;;;;;;;7.70;99.90;;;;;;13144315;22;19997;-87
2021/03/27 18:56:42;;;;;;;;;;;5.60;99.90;;;;;;13144438;22;19932;-87
2021/03/27 19:01:47;;;;;;;;;;;5.40;99.90;;;;;;13172661;22;19929;-87
2021/03/27 19:06:51;;;;;;;;;;;5.20;99.90;;;;;;13143536;22;19922;-87
2021/03/27 19:11:52;;;;;;;;;;;4.90;99.90;;;;;;13144965;22;19936;-88
2021/03/27 19:16:54;;;;;;;;;;;4.90;99.90;;;;;;13147337;22;19997;-88
2021/03/27 19:21:55;;;;;;;;;;;4.70;99.90;;;;;;13124017;22;19957;-89
2021/03/27 19:26:58;;;;;;;;;;;7.00;99.90;;;;;;13176215;22;19971;-89
2021/03/27 19:32:19;;;;;;;;;;;6.30;99.90;;;;;;13176238;22;19922;-89
2021/03/27 19:37:22;;;;;;;;;;;4.50;99.90;;;;;;13148660;22;19971;-89
2021/03/27 19:42:26;;;;;;;;;;;4.40;99.90;;;;;;13148809;22;19989;-88
2021/03/27 19:47:29;;;;;;;;;;;4.40;99.90;;;;;;13147948;22;20280;-88
2021/03/27 19:52:31;;;;;;;;;;;6.60;99.90;;;;;;13148886;22;19950;-88
2021/03/27 19:57:35;;;;;;;;;;;4.20;99.90;;;;;;13148266;22;19930;-88
2021/03/27 20:02:40;;;;;;;;;;;4.20;99.90;;;;;;13175570;22;19928;-88
2021/03/27 20:07:52;;;;;;;;;;;6.50;99.90;;;;;;13147140;22;19989;-88
2021/03/27 20:12:56;;;;;;;;;;;5.00;99.90;;;;;;13148315;22;19922;-87
2021/03/27 20:18:02;;;;;;;;;;;2.60;99.90;;;;;;13147436;22;20001;-88
2021/03/27 20:23:04;;;;;;;;;;;4.30;99.90;;;;;;13148318;22;19954;-88
2021/03/27 20:28:34;;;;;;;;;;;5.40;99.90;;;;;;13174348;22;20402;-88
2021/03/27 20:33:45;;;;;;;;;;;3.70;99.90;;;;;;13115145;22;20009;-88
2021/03/27 20:39:02;;;;;;;;;;;3.70;99.90;;;;;;13149400;22;19944;-88
2021/03/27 20:44:05;;;;;;;;;;;3.60;99.90;;;;;;13146702;22;19929;-88
2021/03/27 20:49:19;;;;;;;;;;;5.70;99.90;;;;;;13174383;22;19989;-88
2021/03/27 20:54:34;;;;;;;;;;;3.60;99.90;;;;;;13146378;22;20322;-88
2021/03/27 21:00:17;;;;;;;;;;;3.70;99.90;;;;;;13174426;22;19930;-88
2021/03/27 21:05:24;;;;;;;;;;;3.60;99.90;;;;;;13145971;22;20327;-88
2021/03/27 21:10:28;;;;;;;;;;;3.70;99.90;;;;;;13147472;22;19961;-88
2021/03/27 21:15:32;;;;;;;;;;;3.50;99.90;;;;;;13146933;22;19922;-88
2021/03/27 21:20:38;;;;;;;;;;;3.60;99.90;;;;;;13146182;22;19948;-88
2021/03/27 21:25:54;;;;;;;;;;;3.70;99.90;;;;;;13146288;22;19952;-88
2021/03/27 21:31:06;;;;;;;;;;;3.80;99.90;;;;;;13146563;22;19926;-87
2021/03/27 21:36:11;;;;;;;;;;;4.00;99.90;;;;;;13146190;22;19922;-88
2021/03/27 21:41:15;;;;;;;;;;;4.00;99.90;;;;;;13145259;22;20026;-87
2021/03/27 21:46:34;;;;;;;;;;;5.30;99.90;;;;;;13153607;22;19989;-87
2021/03/27 21:51:49;;;;;;;;;;;4.10;99.90;;;;;;13153072;22;20322;-88
2021/03/27 21:57:09;;;;;;;;;;;4.20;99.90;;;;;;13154425;22;19958;-87
2021/03/27 22:02:13;;;;;;;;;;;4.30;99.90;;;;;;13180876;22;20385;-86
2021/03/27 22:07:20;;;;;;;;;;;4.40;99.90;;;;;;13153439;22;19993;-88
2021/03/27 22:12:31;;;;;;;;;;;5.50;99.90;;;;;;13180730;22;19944;-88
2021/03/27 22:17:37;;;;;;;;;;;4.80;99.90;;;;;;13153037;22;20352;-88
2021/03/27 22:22:45;;;;;;;;;;;4.80;99.90;;;;;;13152759;22;19982;-88
2021/03/27 22:27:48;;;;;;;;;;;4.70;99.90;;;;;;13152889;22;20410;-89
2021/03/27 22:33:12;;;;;;;;;;;5.00;99.90;;;;;;13153660;22;19918;-88
2021/03/27 22:38:15;;;;;;;;;;;4.80;99.90;;;;;;13153431;22;19957;-88
2021/03/27 22:43:29;;;;;;;;;;;4.80;99.90;;;;;;13180304;22;19934;-88
2021/03/27 22:48:36;;;;;;;;;;;4.80;99.90;;;;;;13152438;22;20339;-87
2021/03/27 22:53:53;;;;;;;;;;;5.20;99.90;;;;;;13179722;22;20005;-88
2021/03/27 22:58:55;;;;;;;;;;;5.00;99.90;;;;;;13153072;22;20346;-88
2021/03/27 23:03:59;;;;;;;;;;;5.00;99.90;;;;;;13152095;22;20296;-88
2021/03/27 23:09:20;;;;;;;;;;;5.00;99.90;;;;;;13152719;22;19929;-88
2021/03/27 23:14:24;;;;;;;;;;;5.20;99.90;;;;;;13177671;22;20009;-87
2021/03/27 23:19:25;;;;;;;;;;;5.70;99.90;;;;;;13152088;22;19918;-88
2021/03/27 23:24:36;;;;;;;;;;;5.80;99.90;;;;;;13153099;22;19989;-88
2021/03/27 23:29:37;;;;;;;;;;;5.60;99.90;;;;;;13152117;22;19922;-87
2021/03/27 23:34:42;;;;;;;;;;;5.60;99.90;;;;;;13152903;22;19942;-88
2021/03/27 23:39:46;;;;;;;;;;;5.80;99.90;;;;;;13151973;22;19941;-88
2021/03/27 23:44:56;;;;;;;;;;;7.00;99.90;;;;;;13180485;22;19957;-88
2021/03/27 23:50:07;;;;;;;;;;;5.70;99.90;;;;;;13180404;22;19925;-88
2021/03/27 23:55:27;;;;;;;;;;;5.80;99.90;;;;;;13179315;22;20224;-88
